Time;durP1;ratioP1;P1;durP2;ratioP2;P2;SDS_P1;SDS_P2;PMS_P1;PMS_P2;Temp;Humidity;BMP_temperature;BMP_pressure;BME280_temperature;BME280_humidity;BME280_pressure;Samples;Min_cycle;Max_cycle;Signal;HPM_P1;HPM_P2
2023/08/05 00:01:57;;;;;;;0.30;0.30;;;23.70;65.30;;;24.12;50.56;94564.22;5078207;28;20635;-37
2023/08/05 00:04:24;;;;;;;0.40;0.40;;;23.70;65.30;;;24.10;50.17;94561.84;5078203;28;20202;-37
2023/08/05 00:06:51;;;;;;;0.30;0.30;;;23.70;65.50;;;24.11;50.37;94555.41;5078420;28;20282;-37
2023/08/05 00:09:18;;;;;;;0.50;0.50;;;23.70;65.40;;;24.12;50.40;94556.19;5077154;28;20250;-37
2023/08/05 00:11:45;;;;;;;0.30;0.30;;;23.60;65.40;;;24.11;50.43;94557.31;5078127;28;20291;-37
2023/08/05 00:14:13;;;;;;;0.32;0.32;;;23.70;65.40;;;24.13;50.47;94547.06;5077306;28;20188;-37
2023/08/05 00:16:40;;;;;;;0.30;0.30;;;23.70;65.50;;;24.11;50.47;94542.00;5077960;28;20204;-37
2023/08/05 00:19:07;;;;;;;0.30;0.30;;;23.60;65.50;;;24.11;50.62;94538.53;5077864;28;20732;-37
2023/08/05 00:21:34;;;;;;;0.40;0.40;;;23.70;65.60;;;24.11;50.68;94528.63;5077929;28;20545;-37
2023/08/05 00:24:01;;;;;;;0.30;0.30;;;23.70;65.60;;;24.12;50.45;94535.56;5077613;28;20195;-37
2023/08/05 00:26:28;;;;;;;0.40;0.40;;;23.70;65.50;;;24.11;50.69;94520.56;5077682;28;20616;-37
2023/08/05 00:28:55;;;;;;;0.40;0.40;;;23.60;66.40;;;24.12;50.76;94513.31;5077698;28;20230;-37
2023/08/05 00:31:22;;;;;;;0.38;0.38;;;23.70;65.60;;;24.13;50.48;94509.56;5077463;28;20230;-37
2023/08/05 00:33:50;;;;;;;0.30;0.30;;;23.70;65.70;;;24.13;50.60;94512.25;5077992;28;20192;-37
2023/08/05 00:36:17;;;;;;;0.30;0.30;;;23.70;65.60;;;24.13;50.75;94502.34;5077658;28;20205;-37
2023/08/05 00:38:44;;;;;;;0.30;0.30;;;23.70;65.60;;;24.14;50.67;94503.13;5076631;28;20211;-37
2023/08/05 00:41:12;;;;;;;0.30;0.30;;;23.70;65.70;;;24.13;50.56;94496.97;5076691;28;20211;-37
2023/08/05 00:43:40;;;;;;;0.40;0.40;;;23.70;65.70;;;24.11;50.83;94495.69;5077303;28;20558;-37
2023/08/05 00:46:09;;;;;;;0.40;0.40;;;23.70;65.70;;;24.13;50.80;94496.97;5077171;28;20285;-37
2023/08/05 00:48:37;;;;;;;0.30;0.30;;;23.70;65.70;;;24.15;50.63;94499.38;5077171;28;20211;-37
2023/08/05 00:51:07;;;;;;;0.32;0.32;;;23.70;65.80;;;24.14;50.97;94495.91;5075599;28;20204;-37
2023/08/05 00:53:37;;;;;;;0.38;0.38;;;23.70;65.90;;;24.14;50.92;94498.56;5076114;28;20213;-37
2023/08/05 00:56:04;;;;;;;0.40;0.40;;;23.70;65.90;;;24.15;50.74;94488.66;5076508;28;20193;-37
2023/08/05 00:58:32;;;;;;;0.40;0.40;;;23.70;65.80;;;24.14;50.92;94490.53;5076886;28;20295;-37
2023/08/05 01:00:59;;;;;;;0.40;0.40;;;23.70;65.90;;;24.14;51.07;94487.88;5076912;28;20189;-37
2023/08/05 01:03:27;;;;;;;0.30;0.30;;;23.70;65.90;;;24.14;51.00;94477.16;5077422;28;20214;-37
2023/08/05 01:05:55;;;;;;;0.30;0.30;;;23.70;65.80;;;24.15;50.83;94467.22;5076884;28;20284;-37
2023/08/05 01:08:22;;;;;;;0.30;0.30;;;23.70;65.90;;;24.16;50.84;94468.00;5077326;28;20206;-37
2023/08/05 01:10:50;;;;;;;0.30;0.30;;;23.70;65.90;;;24.16;51.18;94455.41;5076715;28;20255;-37
2023/08/05 01:13:17;;;;;;;0.40;0.40;;;23.70;65.90;;;24.17;51.29;94448.16;5076951;28;20208;-37
2023/08/05 01:15:44;;;;;;;0.30;0.30;;;23.70;66.00;;;24.16;50.99;94438.53;5075521;28;20528;-37
2023/08/05 01:18:13;;;;;;;0.30;0.30;;;23.70;65.90;;;24.17;51.10;94434.75;5077190;28;20217;-37
2023/08/05 01:20:52;;;;;;;0.38;0.38;;;23.70;66.00;;;24.16;51.09;94420.56;5059077;28;20196;-37
2023/08/05 01:23:36;;;;;;;0.30;0.30;;;23.70;66.00;;;24.16;51.08;94417.09;5076486;28;20195;-37
2023/08/05 01:26:05;;;;;;;0.30;0.30;;;23.70;66.10;;;24.16;51.07;94412.53;5058865;28;20581;-37
2023/08/05 01:28:34;;;;;;;0.30;0.30;;;23.70;66.00;;;24.16;51.10;94412.53;5076628;28;20641;-37
2023/08/05 01:31:01;;;;;;;0.45;0.45;;;23.70;66.00;;;24.16;51.18;94417.09;5075537;28;20255;-37
2023/08/05 01:33:29;;;;;;;0.30;0.30;;;23.70;66.00;;;24.16;51.05;94422.44;5076256;28;20200;-37
2023/08/05 01:35:57;;;;;;;0.30;0.30;;;23.70;66.00;;;24.16;51.02;94425.94;5042342;28;20659;-37
2023/08/05 01:38:24;;;;;;;0.30;0.30;;;23.70;66.00;;;24.17;51.12;94429.41;5075531;28;20616;-37
2023/08/05 01:40:51;;;;;;;0.30;0.30;;;23.70;66.10;;;24.16;51.10;94438.53;5058674;28;20205;-37
2023/08/05 01:43:19;;;;;;;0.40;0.40;;;23.70;66.10;;;24.14;50.94;94442.31;5076077;28;20191;-37
2023/08/05 01:45:45;;;;;;;0.30;0.30;;;23.70;66.10;;;24.15;51.15;94437.75;5075728;28;20271;-37
2023/08/05 01:48:13;;;;;;;0.30;0.30;;;23.70;67.00;;;24.15;51.17;94440.41;5075942;28;20549;-37
2023/08/05 01:50:41;;;;;;;0.38;0.38;;;23.70;66.10;;;24.11;51.14;94423.34;5074916;28;20218;-37
2023/08/05 01:53:08;;;;;;;0.30;0.30;;;23.70;66.20;;;24.15;51.11;94432.38;5075224;28;20629;-37
2023/08/05 01:55:35;;;;;;;0.30;0.30;;;23.70;66.20;;;24.16;51.22;94439.34;5074774;28;20303;-37
2023/08/05 01:58:02;;;;;;;0.30;0.30;;;23.70;66.10;;;24.14;50.95;94445.00;5075731;28;20211;-37
2023/08/05 02:00:29;;;;;;;0.30;0.30;;;23.70;66.20;;;24.14;51.10;94436.94;5058274;28;20307;-37
2023/08/05 02:02:56;;;;;;;0.30;0.30;;;23.70;66.10;;;24.14;51.33;94436.13;5075821;28;20200;-37
2023/08/05 02:05:24;;;;;;;0.40;0.40;;;23.70;66.20;;;24.14;51.40;94428.91;5074971;28;20195;-37
2023/08/05 02:07:51;;;;;;;0.50;0.50;;;23.70;66.10;;;24.14;51.12;94414.69;5075210;28;20183;-37
2023/08/05 02:10:18;;;;;;;0.30;0.30;;;23.70;66.20;;;24.13;51.35;94407.75;5075563;28;20206;-37
2023/08/05 02:12:45;;;;;;;0.40;0.40;;;23.70;66.30;;;24.13;51.12;94399.72;5075766;28;20279;-37
2023/08/05 02:15:12;;;;;;;0.40;0.40;;;23.70;66.10;;;24.14;51.26;94409.34;5075336;28;20189;-37
2023/08/05 02:17:39;;;;;;;0.40;0.40;;;23.70;66.20;;;24.12;51.15;94404.28;5074497;28;20220;-37
2023/08/05 02:20:08;;;;;;;0.30;0.30;;;23.70;66.30;;;24.12;51.13;94385.53;5075395;28;20228;-37
2023/08/05 02:22:35;;;;;;;0.40;0.40;;;23.70;66.30;;;24.12;51.18;94371.31;5075336;28;20225;-37
2023/08/05 02:25:02;;;;;;;0.30;0.30;;;23.70;66.20;;;24.12;51.37;94365.97;5075460;28;20196;-37
2023/08/05 02:27:29;;;;;;;0.30;0.30;;;23.70;66.30;;;24.11;51.23;94359.81;5074733;28;20229;-37
2023/08/05 02:29:59;;;;;;;0.40;0.40;;;23.70;66.30;;;24.11;51.25;94357.13;5074273;28;20586;-37
2023/08/05 02:32:26;;;;;;;0.40;0.40;;;23.70;66.30;;;24.11;51.34;94367.84;5075467;28;20200;-37
2023/08/05 02:34:53;;;;;;;0.30;0.30;;;23.70;66.30;;;24.12;51.32;94379.34;5075192;28;20184;-37
2023/08/05 02:37:20;;;;;;;0.38;0.38;;;23.70;66.30;;;24.11;51.09;94393.88;5074255;28;20277;-37
2023/08/05 02:39:48;;;;;;;0.30;0.30;;;23.70;66.30;;;24.10;51.24;94402.97;5074138;28;20285;-37
2023/08/05 02:42:15;;;;;;;0.30;0.30;;;23.70;66.40;;;24.10;51.33;94411.03;5057626;28;20201;-37
2023/08/05 02:44:42;;;;;;;0.40;0.40;;;23.70;66.40;;;24.08;51.31;94411.31;5057741;28;20308;-37
2023/08/05 02:47:09;;;;;;;0.32;0.32;;;23.70;66.40;;;24.09;51.12;94412.09;5073966;28;20187;-37
2023/08/05 02:49:37;;;;;;;0.30;0.30;;;23.70;66.40;;;24.07;51.30;94407.03;5075548;28;20615;-37
2023/08/05 02:52:04;;;;;;;0.40;0.40;;;23.70;66.40;;;24.07;51.34;94396.31;5074033;28;20686;-37
2023/08/05 02:54:32;;;;;;;0.40;0.40;;;23.70;66.40;;;24.07;51.64;94396.31;5074946;28;20192;-37
2023/08/05 02:56:59;;;;;;;0.40;0.40;;;23.70;66.40;;;24.07;51.27;94398.19;5057894;28;20246;-37
2023/08/05 02:59:27;;;;;;;0.30;0.30;;;23.60;66.40;;;24.07;51.28;94392.84;5057355;28;20224;-37
2023/08/05 03:01:55;;;;;;;0.30;0.30;;;23.60;66.30;;;24.08;51.31;94378.34;5074886;28;20236;-37
2023/08/05 03:04:22;;;;;;;0.40;0.40;;;23.70;66.40;;;24.07;51.38;94368.72;5074001;28;20187;-37
2023/08/05 03:06:49;;;;;;;0.30;0.30;;;23.70;67.30;;;24.06;51.22;94370.63;5073968;28;20646;-37
2023/08/05 03:09:17;;;;;;;0.30;0.30;;;23.60;66.30;;;24.06;51.33;94383.19;5074112;28;20206;-37
2023/08/05 03:11:44;;;;;;;0.30;0.30;;;23.70;66.40;;;24.04;51.32;94380.03;5073862;28;20199;-37
2023/08/05 03:14:11;;;;;;;0.32;0.32;;;23.60;66.40;;;24.06;51.29;94385.88;5074250;28;20225;-37
2023/08/05 03:16:39;;;;;;;0.30;0.30;;;23.60;66.30;;;24.05;51.47;94381.63;5077811;28;20212;-37
2023/08/05 03:19:14;;;;;;;0.32;0.32;;;23.60;66.30;;;24.04;51.24;94386.19;5063075;28;20222;-37
2023/08/05 03:21:42;;;;;;;0.30;0.30;;;23.60;66.30;;;24.04;51.32;94391.53;5077847;28;20199;-37
2023/08/05 03:24:10;;;;;;;0.50;0.50;;;23.70;66.40;;;24.04;51.43;94382.72;5077787;28;20195;-37
2023/08/05 03:26:40;;;;;;;0.30;0.30;;;23.70;66.40;;;24.03;51.21;94386.47;5077644;28;20200;-37
2023/08/05 03:29:09;;;;;;;0.30;0.30;;;23.70;66.40;;;24.04;51.22;94386.19;5061547;28;20207;-37
2023/08/05 03:31:38;;;;;;;0.30;0.30;;;23.70;66.30;;;24.02;51.21;94382.97;5078546;28;20207;-37
2023/08/05 03:34:05;;;;;;;0.30;0.30;;;23.60;66.30;;;24.02;51.23;94382.19;5077606;28;20199;-37
2023/08/05 03:36:34;;;;;;;0.30;0.30;;;23.60;66.30;;;24.01;51.20;94386.78;5061381;28;20291;-37
2023/08/05 03:39:03;;;;;;;0.30;0.30;;;23.60;66.30;;;24.01;51.27;94388.63;5077457;28;20218;-37
2023/08/05 03:41:30;;;;;;;0.30;0.30;;;23.60;66.30;;;24.00;51.11;94393.22;5078701;28;20637;-37
2023/08/05 03:43:57;;;;;;;0.30;0.30;;;23.60;67.20;;;23.99;51.30;94391.63;5077428;28;20204;-37
2023/08/05 03:46:24;;;;;;;0.30;0.30;;;23.60;66.30;;;24.00;51.29;94395.88;5060543;28;20226;-37
2023/08/05 03:48:52;;;;;;;0.30;0.30;;;23.60;66.30;;;24.00;51.16;94395.06;5077329;28;20216;-37
2023/08/05 03:51:20;;;;;;;0.38;0.38;;;23.60;66.40;;;23.99;51.24;94396.97;5077543;28;20204;-37
2023/08/05 03:53:47;;;;;;;0.30;0.30;;;23.60;66.30;;;23.98;51.31;94396.16;5077222;28;20202;-37
2023/08/05 03:56:19;;;;;;;0.30;0.30;;;23.60;67.20;;;24.00;51.21;94400.44;5077084;28;20663;-37
2023/08/05 03:58:47;;;;;;;0.30;0.30;;;23.60;66.30;;;23.97;51.07;94399.13;5077356;28;20269;-37
2023/08/05 04:01:17;;;;;;;0.30;0.30;;;23.60;66.40;;;23.96;51.33;94392.19;5077112;28;20199;-37
2023/08/05 04:03:45;;;;;;;0.40;0.40;;;23.60;66.30;;;23.96;51.13;94384.16;5078847;28;20610;-37
2023/08/05 04:06:12;;;;;;;0.30;0.30;;;23.60;66.30;;;23.96;51.29;94382.28;5060347;28;20203;-37
2023/08/05 04:08:39;;;;;;;0.30;0.30;;;23.60;66.30;;;23.95;51.15;94371.88;5077155;28;20211;-37
2023/08/05 04:11:08;;;;;;;0.30;0.30;;;23.50;66.20;;;23.95;51.13;94366.50;5077852;28;20218;-37
2023/08/05 04:13:39;;;;;;;0.30;0.30;;;23.50;66.20;;;23.93;51.23;94369.44;5078104;28;20206;-37
2023/08/05 04:16:09;;;;;;;0.32;0.32;;;23.50;66.30;;;23.93;51.45;94363.31;5076752;28;20295;-37
2023/08/05 04:18:40;;;;;;;0.30;0.30;;;23.50;66.30;;;23.93;51.22;94360.63;5076798;28;20214;-37
2023/08/05 04:21:10;;;;;;;0.30;0.30;;;23.50;66.30;;;23.93;51.35;94355.28;5077896;28;20211;-37
2023/08/05 04:23:37;;;;;;;0.30;0.30;;;23.50;66.30;;;23.92;51.52;94343.75;5076677;28;20303;-37
2023/08/05 04:26:05;;;;;;;0.40;0.40;;;23.50;66.20;;;23.92;51.22;94345.63;5076343;28;20204;-37
2023/08/05 04:28:32;;;;;;;0.30;0.30;;;23.50;66.30;;;23.91;51.25;94362.75;5077529;28;20283;-37
2023/08/05 04:30:59;;;;;;;0.30;0.30;;;23.50;66.20;;;23.91;51.33;94366.25;5076629;28;20279;-37
2023/08/05 04:33:27;;;;;;;0.38;0.38;;;23.50;66.30;;;23.91;51.17;94363.56;5077733;28;20589;-37
2023/08/05 04:35:57;;;;;;;0.30;0.30;;;23.50;66.30;;;23.91;51.16;94346.69;5077924;28;20504;-37
2023/08/05 04:38:24;;;;;;;0.33;0.33;;;23.50;66.20;;;23.90;51.30;94351.25;5077263;28;20191;-37
2023/08/05 04:40:51;;;;;;;0.30;0.30;;;23.50;66.30;;;23.90;51.35;94340.56;5077359;28;20222;-37
2023/08/05 04:43:18;;;;;;;0.40;0.40;;;23.50;66.20;;;23.91;51.28;94339.47;5077308;28;20215;-37
2023/08/05 04:45:51;;;;;;;0.40;0.40;;;23.50;66.30;;;23.90;51.28;94334.38;5077371;28;20222;-37
2023/08/05 04:48:18;;;;;;;0.30;0.30;;;23.50;66.30;;;23.89;51.18;94338.13;5077730;28;20175;-37
2023/08/05 04:50:45;;;;;;;0.30;0.30;;;23.50;66.20;;;23.89;51.39;94327.44;5077164;28;20197;-37
2023/08/05 04:53:16;;;;;;;0.40;0.40;;;23.50;66.30;;;23.89;51.13;94333.59;5077144;28;20224;-37
2023/08/05 04:55:43;;;;;;;0.35;0.35;;;23.50;66.20;;;23.88;51.50;94339.25;5077065;28;20173;-37
2023/08/05 04:58:11;;;;;;;0.30;0.30;;;23.50;66.30;;;23.87;51.13;94335.75;5077173;28;20195;-37
2023/08/05 05:00:38;;;;;;;0.40;0.40;;;23.50;66.30;;;23.88;51.18;94340.03;5076878;28;20214;-37
2023/08/05 05:03:07;;;;;;;0.30;0.30;;;23.50;66.30;;;23.86;51.19;94334.16;5076886;28;20538;-37
2023/08/05 05:05:35;;;;;;;0.38;0.38;;;23.50;66.30;;;23.86;51.19;94333.38;5076902;28;20288;-37
2023/08/05 05:08:03;;;;;;;0.30;0.30;;;23.50;66.20;;;23.85;51.14;94340.59;5075788;28;20207;-37
2023/08/05 05:10:30;;;;;;;0.40;0.40;;;23.50;66.20;;;23.84;51.22;94352.44;5077023;28;20191;-37
2023/08/05 05:12:58;;;;;;;0.30;0.30;;;23.50;66.20;;;23.85;51.22;94358.56;5059318;28;20242;-37
2023/08/05 05:15:25;;;;;;;0.38;0.38;;;23.50;66.20;;;23.83;51.44;94365.00;5076683;28;20199;-37
2023/08/05 05:17:52;;;;;;;0.40;0.40;;;23.50;66.20;;;23.83;51.38;94366.91;5076683;28;20230;-37
2023/08/05 05:20:20;;;;;;;0.30;0.30;;;23.50;66.20;;;23.82;51.17;94362.63;5059196;28;20242;-37
2023/08/05 05:22:47;;;;;;;0.30;0.30;;;23.50;66.30;;;23.82;50.96;94359.94;5075611;28;20290;-37
2023/08/05 05:25:14;;;;;;;0.35;0.35;;;23.40;66.10;;;23.81;51.17;94361.84;5077286;28;20196;-37
2023/08/05 05:27:41;;;;;;;0.30;0.30;;;23.40;66.10;;;23.81;51.18;94369.06;5076461;28;20199;-37
2023/08/05 05:30:08;;;;;;;0.40;0.40;;;23.50;66.30;;;23.82;51.17;94365.31;5076400;28;20196;-37
2023/08/05 05:32:35;;;;;;;0.40;0.40;;;23.50;66.20;;;23.79;51.35;94361.31;5076597;28;20218;-37
2023/08/05 05:35:03;;;;;;;0.30;0.30;;;23.50;66.30;;;23.79;51.27;94355.97;5075708;28;20261;-37
2023/08/05 05:37:30;;;;;;;0.30;0.30;;;23.40;66.10;;;23.78;51.27;94350.91;5075450;28;20282;-37
2023/08/05 05:39:57;;;;;;;0.30;0.30;;;23.40;66.20;;;23.76;51.19;94356.53;5076317;28;20273;-37
2023/08/05 05:42:25;;;;;;;0.30;0.30;;;23.40;66.20;;;23.76;51.24;94374.50;5075879;28;20280;-37
2023/08/05 05:44:53;;;;;;;0.40;0.40;;;23.40;66.10;;;23.75;51.14;94359.50;5074950;28;20311;-37
2023/08/05 05:47:20;;;;;;;0.40;0.40;;;23.40;66.20;;;23.74;51.25;94350.69;5076476;28;20208;-37
2023/08/05 05:49:48;;;;;;;0.30;0.30;;;23.40;66.10;;;23.73;51.21;94361.66;5076418;28;20214;-37
2023/08/05 05:52:18;;;;;;;0.32;0.32;;;23.40;66.20;;;23.72;51.15;94354.75;5075074;28;20192;-37
2023/08/05 05:54:45;;;;;;;0.30;0.30;;;23.40;66.20;;;23.70;51.42;94363.03;5075875;28;20287;-37
2023/08/05 05:57:12;;;;;;;0.38;0.38;;;23.40;66.10;;;23.69;51.35;94366.00;5076223;28;20269;-37
2023/08/05 05:59:39;;;;;;;0.32;0.32;;;23.40;66.10;;;23.68;51.26;94354.53;5075958;28;20214;-37
2023/08/05 06:02:08;;;;;;;0.30;0.30;;;23.30;66.10;;;23.68;51.49;94367.91;5075991;28;20524;-37
2023/08/05 06:04:35;;;;;;;0.30;0.30;;;23.30;66.10;;;23.68;51.60;94357.19;5058892;28;20186;-37
2023/08/05 06:07:03;;;;;;;0.40;0.40;;;23.30;66.10;;;23.68;51.35;94341.13;5075847;28;20194;-37
2023/08/05 06:09:31;;;;;;;0.30;0.30;;;23.30;66.10;;;23.68;51.30;94354.53;5075537;28;20642;-37
2023/08/05 06:11:59;;;;;;;0.30;0.30;;;23.30;66.10;;;23.66;51.34;94356.69;5075797;28;20282;-37
2023/08/05 06:14:28;;;;;;;0.30;0.30;;;23.30;66.10;;;23.67;51.38;94359.06;5075461;28;20602;-37
2023/08/05 06:16:55;;;;;;;0.30;0.30;;;23.30;66.10;;;23.67;51.38;94344.88;5075560;28;20199;-37
2023/08/05 06:19:23;;;;;;;0.30;0.30;;;23.30;66.10;;;23.66;51.33;94345.97;5074840;28;20218;-37
2023/08/05 06:21:50;;;;;;;0.30;0.30;;;23.30;66.10;;;23.66;51.34;94349.44;5074396;28;20843;-37
2023/08/05 06:24:18;;;;;;;0.40;0.40;;;23.30;66.10;;;23.66;51.37;94346.75;5075362;28;20223;-37
2023/08/05 06:26:45;;;;;;;0.30;0.30;;;23.30;66.10;;;23.68;51.73;94354.53;5074457;28;20183;-37
2023/08/05 06:29:13;;;;;;;0.30;0.30;;;23.30;66.10;;;23.67;51.25;94352.94;5075314;28;20198;-37
2023/08/05 06:31:40;;;;;;;0.40;0.40;;;23.30;66.10;;;23.67;51.48;94348.34;5075345;28;20282;-39
2023/08/05 06:34:07;;;;;;;0.30;0.30;;;23.30;66.10;;;23.66;51.38;94344.06;5075270;28;20192;-39
2023/08/05 06:36:34;;;;;;;0.30;0.30;;;23.30;66.10;;;23.65;51.53;94339.81;5075279;28;20635;-36
2023/08/05 06:39:03;;;;;;;0.30;0.30;;;23.30;66.10;;;23.65;51.64;94334.44;5076035;28;20232;-45
2023/08/05 06:41:30;;;;;;;0.32;0.32;;;23.30;66.10;;;23.66;51.55;94335.25;5075232;28;20204;-39
2023/08/05 06:43:57;;;;;;;0.30;0.30;;;23.30;66.10;;;23.64;51.56;94335.56;5075103;28;20273;-39
2023/08/05 06:46:24;;;;;;;0.30;0.30;;;23.30;66.10;;;23.66;51.50;94348.66;5075224;28;20271;-39
2023/08/05 06:48:51;;;;;;;0.50;0.50;;;23.30;66.10;;;23.65;51.48;94349.72;5074449;28;20206;-39
2023/08/05 06:51:19;;;;;;;0.35;0.35;;;23.30;66.10;;;23.65;51.46;94347.06;5075252;28;20228;-36
2023/08/05 06:53:46;;;;;;;0.30;0.30;;;23.30;66.10;;;23.65;51.50;94349.72;5074416;28;20277;-36
2023/08/05 06:56:13;;;;;;;0.40;0.40;;;23.30;66.10;;;23.65;51.51;94355.09;5075227;28;20274;-36
2023/08/05 06:58:40;;;;;;;0.40;0.40;;;23.30;66.10;;;23.65;51.61;94344.38;5075081;28;20200;-39
2023/08/05 07:01:08;;;;;;;0.30;0.30;;;23.30;66.10;;;23.63;51.60;94347.34;5074405;28;20220;-39
2023/08/05 07:03:35;;;;;;;0.40;0.40;;;23.30;66.10;;;23.63;51.50;94336.63;5074191;28;20582;-37
2023/08/05 07:06:02;;;;;;;0.30;0.30;;;23.30;66.10;;;23.63;51.54;94333.97;5074978;28;20189;-37
2023/08/05 07:08:29;;;;;;;0.30;0.30;;;23.20;66.00;;;23.65;51.55;94333.66;5075094;28;20269;-36
2023/08/05 07:10:57;;;;;;;0.40;0.40;;;23.30;66.10;;;23.64;51.47;94326.72;5075136;28;20189;-36
2023/08/05 07:13:26;;;;;;;0.32;0.32;;;23.30;66.10;;;23.66;51.52;94324.56;5074877;28;20279;-36
2023/08/05 07:16:03;;;;;;;0.30;0.30;;;23.30;66.10;;;23.65;51.61;94328.31;5074769;28;20312;-36
2023/08/05 07:18:31;;;;;;;0.50;0.50;;;23.30;66.10;;;23.65;51.55;94321.06;5075152;28;20619;-36
2023/08/05 07:20:58;;;;;;;0.40;0.40;;;23.30;66.10;;;23.64;51.71;94316.81;5074701;28;20646;-36
2023/08/05 07:23:25;;;;;;;0.50;0.50;;;23.30;66.10;;;23.66;51.58;94311.16;5074978;28;20532;-36
2023/08/05 07:25:52;;;;;;;0.40;0.40;;;23.30;66.10;;;23.65;51.72;94318.38;5073785;28;20218;-36
2023/08/05 07:28:19;;;;;;;0.40;0.40;;;23.30;66.10;;;23.66;51.57;94319.97;5074913;28;20207;-36
2023/08/05 07:30:47;;;;;;;0.30;0.30;;;23.30;66.10;;;23.67;51.69;94326.94;5074678;28;20204;-36
2023/08/05 07:33:14;;;;;;;0.30;0.30;;;23.30;66.10;;;23.67;51.68;94321.56;5074627;28;20192;-36
2023/08/05 07:35:41;;;;;;;0.30;0.30;;;23.30;66.10;;;23.66;51.66;94308.50;5074641;28;20223;-36
2023/08/05 07:38:11;;;;;;;0.38;0.38;;;23.30;66.10;;;23.66;51.86;94298.56;5074485;28;20219;-36
2023/08/05 07:40:40;;;;;;;0.40;0.40;;;23.30;66.10;;;23.67;51.67;94294.03;5074492;28;20206;-36
2023/08/05 07:43:09;;;;;;;0.30;0.30;;;23.30;66.10;;;23.67;51.66;94286.00;5075043;28;20210;-36
2023/08/05 07:45:36;;;;;;;0.30;0.30;;;23.30;66.10;;;23.65;51.76;94283.56;5074355;28;20228;-36
2023/08/05 07:48:06;;;;;;;0.40;0.40;;;23.30;66.10;;;23.67;51.75;94294.03;5074655;28;20205;-36
2023/08/05 07:50:34;;;;;;;0.30;0.30;;;23.30;66.10;;;23.66;51.77;94289.75;5073945;28;20176;-36
2023/08/05 07:53:03;;;;;;;0.40;0.40;;;23.30;66.10;;;23.65;51.83;94298.84;5074432;28;20505;-36
2023/08/05 07:55:32;;;;;;;0.40;0.40;;;23.30;66.10;;;23.66;51.83;94303.13;5074384;28;20201;-36
2023/08/05 07:58:01;;;;;;;0.40;0.40;;;23.30;66.10;;;23.66;52.01;94300.47;5074589;28;20269;-36
2023/08/05 08:00:28;;;;;;;0.40;0.40;;;23.30;66.10;;;23.65;51.80;94296.97;5073825;28;20654;-36
2023/08/05 08:02:55;;;;;;;0.40;0.40;;;23.30;66.10;;;23.66;51.91;94300.47;5048594;28;20206;-36
2023/08/05 08:05:22;;;;;;;0.30;0.30;;;23.30;66.10;;;23.65;51.80;94305.00;5058286;28;20223;-36
2023/08/05 08:07:50;;;;;;;0.40;0.40;;;23.30;66.10;;;23.64;52.05;94302.63;5058081;28;20224;-36
2023/08/05 08:10:17;;;;;;;0.40;0.40;;;23.30;66.10;;;23.63;51.84;94301.03;5057088;28;20236;-36
2023/08/05 08:12:46;;;;;;;0.40;0.40;;;23.30;66.10;;;23.64;52.16;94302.63;5058073;28;20200;-36
2023/08/05 08:15:13;;;;;;;0.40;0.40;;;23.30;66.10;;;23.63;52.27;94309.06;5057609;28;20279;-36
2023/08/05 08:17:41;;;;;;;0.38;0.38;;;23.30;66.10;;;23.63;51.99;94293.81;5056471;28;20210;-36
2023/08/05 08:20:09;;;;;;;0.30;0.30;;;23.30;66.10;;;23.61;51.93;94298.63;5058459;28;20524;-36
2023/08/05 08:22:36;;;;;;;0.30;0.30;;;23.30;66.10;;;23.60;52.03;94294.38;5057706;28;20184;-36
2023/08/05 08:25:04;;;;;;;0.30;0.30;;;23.30;66.10;;;23.61;52.04;94295.97;5057628;28;20202;-36
2023/08/05 08:27:31;;;;;;;0.30;0.30;;;23.30;66.10;;;23.61;52.06;94292.50;5073465;28;20204;-36
2023/08/05 08:29:59;;;;;;;0.30;0.30;;;23.30;66.10;;;23.59;52.40;94303.47;5057739;28;20211;-36
2023/08/05 08:32:26;;;;;;;0.30;0.30;;;23.30;66.10;;;23.58;52.00;94317.97;5057606;28;20668;-36
2023/08/05 08:34:53;;;;;;;0.40;0.40;;;23.30;66.10;;;23.60;52.01;94321.13;5056894;28;20199;-36
2023/08/05 08:37:20;;;;;;;0.30;0.30;;;23.30;66.10;;;23.60;52.25;94315.00;5073403;28;20207;-36
2023/08/05 08:39:47;;;;;;;0.40;0.40;;;23.20;66.00;;;23.59;52.21;94303.47;5057673;28;20218;-36
2023/08/05 08:42:20;;;;;;;0.30;0.30;;;23.30;66.10;;;23.59;52.18;94316.09;5056741;28;20294;-36
2023/08/05 08:44:49;;;;;;;0.40;0.40;;;23.30;67.00;;;23.60;52.74;94323.03;5057331;28;20219;-36
2023/08/05 08:47:17;;;;;;;0.40;0.40;;;23.30;66.10;;;23.60;52.20;94323.81;5057230;28;20208;-36
2023/08/05 08:49:48;;;;;;;0.50;0.50;;;23.30;66.20;;;23.60;52.25;94326.50;5039575;28;20518;-36
2023/08/05 08:52:20;;;;;;;0.40;0.40;;;23.30;66.30;;;23.59;52.08;94329.47;5056273;28;20197;-36
2023/08/05 08:54:51;;;;;;;0.30;0.30;;;23.30;66.10;;;23.56;52.07;94335.38;5057394;28;20242;-36
2023/08/05 08:57:18;;;;;;;0.30;0.30;;;23.30;66.20;;;23.60;52.24;94339.09;5057616;28;20191;-36
2023/08/05 08:59:47;;;;;;;0.30;0.30;;;23.30;66.20;;;23.60;52.28;94342.56;5056887;28;20196;-36
2023/08/05 09:02:23;;;;;;;0.30;0.30;;;23.30;66.30;;;23.59;52.26;94346.31;5056360;28;20183;-36
2023/08/05 09:04:54;;;;;;;0.60;0.60;;;23.30;66.50;;;23.59;52.38;94342.84;5056663;28;20180;-36
2023/08/05 09:07:26;;;;;;;0.30;0.30;;;23.30;66.30;;;23.59;52.36;94340.19;5055914;28;20283;-36
2023/08/05 09:09:53;;;;;;;0.45;0.45;;;23.30;66.30;;;23.59;52.51;94338.28;5056312;28;20181;-36
2023/08/05 09:12:20;;;;;;;0.40;0.40;;;23.30;66.40;;;23.59;52.36;94343.63;5056300;28;20202;-36
2023/08/05 09:14:56;;;;;;;0.35;0.35;;;23.20;66.10;;;23.59;52.29;94351.66;5055889;28;20597;-36
2023/08/05 09:17:24;;;;;;;0.30;0.30;;;23.30;66.40;;;23.59;52.42;94342.84;5056928;28;20195;-36
2023/08/05 09:19:51;;;;;;;0.40;0.40;;;23.30;66.40;;;23.59;52.51;94343.63;5056521;28;20534;-36
2023/08/05 09:22:18;;;;;;;0.30;0.30;;;23.20;66.30;;;23.60;52.35;94342.56;5072514;28;20278;-36
2023/08/05 09:24:45;;;;;;;0.30;0.30;;;23.30;66.50;;;23.60;52.51;94339.88;5056557;28;20602;-36
2023/08/05 09:27:12;;;;;;;0.32;0.32;;;23.30;66.50;;;23.61;52.61;94341.47;5056435;28;20195;-36
2023/08/05 09:29:39;;;;;;;0.40;0.40;;;23.30;66.50;;;23.59;52.38;94338.28;5056654;28;20214;-36
2023/08/05 09:32:07;;;;;;;0.40;0.40;;;23.30;66.50;;;23.59;52.54;94330.25;5056227;28;20283;-36
2023/08/05 09:34:39;;;;;;;0.40;0.40;;;23.30;66.60;;;23.61;52.48;94329.97;5055705;28;20216;-36
2023/08/05 09:37:07;;;;;;;0.30;0.30;;;23.30;66.70;;;23.60;52.47;94334.53;5054799;28;20523;-36
2023/08/05 09:39:44;;;;;;;0.38;0.38;;;23.30;66.60;;;23.61;52.65;94333.44;5059667;28;20198;-36
2023/08/05 09:42:20;;;;;;;0.60;0.60;;;23.30;66.70;;;23.61;52.78;94336.13;5076146;28;20706;-36
2023/08/05 09:44:53;;;;;;;0.60;0.60;;;23.30;66.70;;;23.61;52.77;94338.78;5074692;28;20691;-36
2023/08/05 09:47:25;;;;;;;0.40;0.40;;;23.30;66.80;;;23.60;52.60;94333.75;5076087;28;20222;-36
2023/08/05 09:49:53;;;;;;;0.40;0.40;;;23.30;66.70;;;23.60;52.59;94334.53;5076076;28;20273;-36
2023/08/05 09:52:23;;;;;;;0.40;0.40;;;23.30;66.60;;;23.59;52.71;94335.59;5074540;28;20280;-36
2023/08/05 09:55:04;;;;;;;0.40;0.40;;;23.30;66.70;;;23.60;52.77;94339.09;5076149;28;20175;-36
2023/08/05 09:57:33;;;;;;;0.50;0.50;;;23.30;66.80;;;23.60;52.52;94339.09;5058811;28;20198;-36
2023/08/05 10:00:02;;;;;;;0.40;0.40;;;23.30;66.80;;;23.59;52.55;94338.28;5073802;28;20622;-36
2023/08/05 10:02:33;;;;;;;0.30;0.30;;;23.30;66.70;;;23.60;52.82;94336.41;5071023;28;20278;-36
2023/08/05 10:05:02;;;;;;;0.40;0.40;;;23.30;66.70;;;23.60;52.98;94337.19;5074803;28;20222;-36
2023/08/05 10:07:30;;;;;;;0.40;0.40;;;23.30;66.70;;;23.60;52.55;94334.53;5075764;28;20205;-36
2023/08/05 10:09:58;;;;;;;0.40;0.40;;;23.30;66.80;;;23.61;52.87;94338.78;5074305;28;20202;-36
2023/08/05 10:12:30;;;;;;;0.30;0.30;;;23.30;66.10;;;23.62;52.72;94331.56;5067727;28;20241;-36
2023/08/05 10:14:59;;;;;;;0.40;0.40;;;23.30;67.00;;;23.58;52.73;94331.34;5074237;28;20187;-36
2023/08/05 10:17:28;;;;;;;0.40;0.40;;;23.30;67.00;;;23.62;52.74;94335.03;5053371;28;20519;-36
2023/08/05 10:19:55;;;;;;;0.40;0.40;;;23.30;66.90;;;23.62;52.83;94334.22;5063019;28;20215;-36
2023/08/05 10:22:24;;;;;;;0.40;0.40;;;23.30;66.90;;;23.63;53.04;94339.31;5074278;28;20692;-36
2023/08/05 10:24:52;;;;;;;0.40;0.40;;;23.30;67.90;;;23.64;52.77;94337.41;5074844;28;20506;-36